Time;durP1;ratioP1;P1;durP2;ratioP2;P2;SDS_P1;SDS_P2;PMS_P1;PMS_P2;Temp;Humidity;BMP_temperature;BMP_pressure;BME280_temperature;BME280_humidity;BME280_pressure;Samples;Min_cycle;Max_cycle;Signal;HPM_P1;HPM_P2
2021/04/11 00:00:37;;;;;;;20.80;12.37;;;;;;;5.22;47.34;100429.41;1751332;82;21144;-72
2021/04/11 00:03:06;;;;;;;20.43;11.83;;;;;;;5.19;47.39;100424.27;1727607;82;21163;-74
2021/04/11 00:05:37;;;;;;;21.73;12.78;;;;;;;5.16;47.41;100438.34;1728188;82;21297;-73
2021/04/11 00:08:06;;;;;;;20.85;12.80;;;;;;;5.14;47.58;100433.63;1719319;83;21191;-74
2021/04/11 00:10:37;;;;;;;20.20;12.47;;;;;;;5.09;47.78;100442.97;1719329;83;21313;-74
2021/04/11 00:13:09;;;;;;;21.93;12.93;;;;;;;5.07;47.64;100442.16;1718378;83;21186;-74
2021/04/11 00:15:36;;;;;;;21.23;12.03;;;;;;;5.05;47.67;100441.38;1736850;82;21650;-74
2021/04/11 00:18:04;;;;;;;20.48;12.00;;;;;;;5.04;47.69;100444.91;1743231;82;21154;-75
2021/04/11 00:20:32;;;;;;;21.90;13.03;;;;;;;5.01;47.80;100445.46;1734774;82;21317;-74
2021/04/11 00:22:59;;;;;;;20.27;11.93;;;;;;;4.98;47.89;100451.67;1730663;82;21278;-74
2021/04/11 00:25:31;;;;;;;20.35;11.33;;;;;;;4.94;48.05;100448.77;1738150;82;21164;-74
2021/04/11 00:27:58;;;;;;;19.92;12.03;;;;;;;4.90;48.08;100447.17;1730933;82;21571;-75
2021/04/11 00:30:26;;;;;;;21.05;12.33;;;;;;;4.87;48.14;100442.02;1720762;82;21108;-75
2021/04/11 00:32:59;;;;;;;17.12;11.48;;;;;;;4.86;48.09;100442.92;1740956;82;21314;-75
2021/04/11 00:35:26;;;;;;;20.35;10.95;;;;;;;4.86;48.21;100442.92;1734524;82;21667;-75
2021/04/11 00:37:54;;;;;;;22.50;12.40;;;;;;;4.85;48.59;100443.39;1732638;81;21317;-75
2021/04/11 00:40:26;;;;;;;18.95;11.12;;;;;;;4.82;48.90;100446.57;1711472;83;21588;-75
2021/04/11 00:43:08;;;;;;;20.90;11.70;;;;;;;4.78;48.74;100447.59;1718583;82;21611;-75
2021/04/11 00:46:00;;;;;;;19.90;11.70;;;;;;;4.75;48.78;100450.72;1715699;83;21317;-73
2021/04/11 00:48:28;;;;;;;20.43;12.03;;;;;;;4.72;48.68;100453.92;1712016;84;21596;-73
2021/04/11 00:51:03;;;;;;;20.10;12.33;;;;;;;4.70;48.63;100455.73;1721883;82;21146;-73
2021/04/11 00:55:30;;;;;;;20.85;11.70;;;;;;;4.70;48.66;100448.70;1779431;79;22906;-74
2021/04/11 00:57:57;;;;;;;18.87;12.13;;;;;;;4.61;48.72;100451.66;1752590;82;21135;-75
2021/04/11 01:00:30;;;;;;;20.82;12.20;;;;;;;4.60;48.81;100463.03;1747859;82;21268;-74
2021/04/11 01:02:57;;;;;;;19.52;12.35;;;;;;;4.58;48.75;100457.02;1748021;82;21262;-74
2021/04/11 01:05:28;;;;;;;19.05;12.53;;;;;;;4.55;48.82;100458.41;1753153;82;21675;-74
2021/04/11 01:07:56;;;;;;;20.52;11.78;;;;;;;4.52;48.86;100446.73;1741030;82;21256;-73
2021/04/11 01:10:28;;;;;;;20.20;12.10;;;;;;;4.50;48.87;100453.78;1723103;83;21194;-72
2021/04/11 01:12:57;;;;;;;20.95;12.23;;;;;;;4.38;48.83;100434.95;1724437;82;21119;-73
2021/04/11 01:15:29;;;;;;;22.67;12.13;;;;;;;4.47;48.86;100449.97;1748884;82;21300;-73
2021/04/11 01:17:56;;;;;;;21.15;11.78;;;;;;;4.45;48.99;100448.72;1748610;82;21147;-74
2021/04/11 01:20:25;;;;;;;22.95;12.95;;;;;;;4.46;49.17;100458.73;1724220;82;21158;-74
2021/04/11 01:23:09;;;;;;;19.40;12.05;;;;;;;4.43;49.28;100453.98;1733389;82;21155;-74
2021/04/11 01:25:38;;;;;;;20.05;11.68;;;;;;;4.42;49.38;100456.66;1752380;82;21560;-74
2021/04/11 01:28:24;;;;;;;19.15;10.58;;;;;;;4.37;49.39;100446.36;1730940;82;21183;-74
2021/04/11 01:30:57;;;;;;;18.80;11.15;;;;;;;4.37;49.38;100460.77;1723285;83;21143;-72
2021/04/11 01:33:28;;;;;;;18.52;11.30;;;;;;;4.31;49.72;100449.17;1742518;82;21151;-73
2021/04/11 01:35:56;;;;;;;19.42;10.75;;;;;;;4.29;49.60;100450.13;1701813;82;21171;-73
2021/04/11 01:38:26;;;;;;;17.70;11.05;;;;;;;4.26;49.51;100452.40;1705164;83;21166;-73
2021/04/11 01:41:19;;;;;;;17.52;11.60;;;;;;;4.23;49.40;100449.86;1706039;83;21142;-72
2021/04/11 01:43:49;;;;;;;17.77;10.65;;;;;;;4.20;49.72;100454.75;1680623;83;21135;-72
2021/04/11 01:46:18;;;;;;;57.90;14.38;;;;;;;4.15;50.73;100450.58;1695138;83;21324;-72
2021/04/11 01:48:46;;;;;;;33.50;13.30;;;;;;;4.12;50.90;100458.08;1709111;83;21662;-72
2021/04/11 01:51:16;;;;;;;25.40;13.05;;;;;;;4.08;51.23;100453.39;1695166;83;21174;-72
2021/04/11 01:53:43;;;;;;;26.73;12.65;;;;;;;4.00;51.28;100450.15;1690730;83;21615;-73
2021/04/11 01:56:12;;;;;;;19.27;10.93;;;;;;;3.96;51.25;100448.54;1707734;84;21096;-72
2021/04/11 01:58:42;;;;;;;19.00;11.05;;;;;;;3.91;51.11;100459.61;1706453;83;21167;-71
2021/04/11 02:01:30;;;;;;;17.87;10.78;;;;;;;3.89;51.17;100463.59;1695303;84;21553;-72
2021/04/11 02:04:01;;;;;;;19.95;11.35;;;;;;;3.86;51.19;100460.20;1683719;84;21319;-72
2021/04/11 02:06:30;;;;;;;20.92;12.40;;;;;;;3.82;51.64;100458.13;1685046;84;21160;-73
2021/04/11 02:09:07;;;;;;;19.70;11.68;;;;;;;3.77;51.84;100459.59;1690237;84;21164;-73
2021/04/11 02:11:40;;;;;;;17.98;11.85;;;;;;;3.75;51.90;100467.94;1709681;84;21187;-73
2021/04/11 02:14:10;;;;;;;21.75;12.33;;;;;;;3.71;51.85;100474.17;1687656;84;21131;-73
2021/04/11 02:16:40;;;;;;;21.20;13.05;;;;;;;3.68;51.89;100472.94;1687171;83;21604;-74
2021/04/11 02:19:22;;;;;;;18.30;12.53;;;;;;;3.66;51.96;100478.69;1683222;84;21310;-73
2021/04/11 02:22:12;;;;;;;19.57;12.37;;;;;;;3.65;51.81;100475.66;1682158;84;21195;-72
2021/04/11 02:24:44;;;;;;;22.25;13.55;;;;;;;3.66;51.77;100480.00;1683298;84;21278;-72
2021/04/11 02:27:15;;;;;;;20.27;12.68;;;;;;;3.65;51.78;100478.73;1681844;85;21152;-73
2021/04/11 02:29:45;;;;;;;17.95;12.33;;;;;;;3.67;51.56;100479.09;1661838;85;21174;-72
2021/04/11 02:32:15;;;;;;;25.12;13.43;;;;;;;3.68;51.49;100483.41;1707836;84;21321;-72
2021/04/11 02:34:46;;;;;;;23.62;13.43;;;;;;;3.68;51.35;100478.17;1698447;83;21175;-72
2021/04/11 02:37:23;;;;;;;22.40;13.22;;;;;;;3.69;51.22;100492.97;1705102;82;21640;-73
2021/04/11 02:39:56;;;;;;;22.87;13.20;;;;;;;3.70;51.16;100483.38;1709701;84;21432;-72
2021/04/11 02:42:30;;;;;;;23.50;13.28;;;;;;;3.68;51.33;100491.72;1709754;84;21180;-72
2021/04/11 02:45:11;;;;;;;21.10;13.00;;;;;;;3.70;51.45;100488.15;1693631;84;21286;-72
2021/04/11 02:47:40;;;;;;;21.73;13.08;;;;;;;3.70;51.39;100492.08;1688498;84;21310;-72
2021/04/11 02:50:09;;;;;;;22.67;12.80;;;;;;;3.68;51.32;100495.64;1681972;84;21171;-72
2021/04/11 02:52:41;;;;;;;19.30;11.95;;;;;;;3.71;51.25;100491.61;1666703;84;21136;-72
2021/04/11 02:55:11;;;;;;;20.80;12.78;;;;;;;3.71;51.21;100500.77;1696616;83;21203;-72
2021/04/11 02:57:39;;;;;;;22.55;13.48;;;;;;;3.71;51.25;100500.33;1701521;84;21286;-72
2021/04/11 03:00:14;;;;;;;22.58;13.30;;;;;;;3.70;51.18;100505.62;1689877;84;21163;-72
2021/04/11 03:02:42;;;;;;;21.30;12.93;;;;;;;3.69;51.28;100503.44;1682300;84;21191;-72
2021/04/11 03:05:13;;;;;;;22.22;12.60;;;;;;;3.69;51.36;100508.66;1643930;85;21195;-72
2021/04/11 03:07:49;;;;;;;19.70;12.70;;;;;;;3.66;51.46;100501.36;1658803;85;21308;-73
2021/04/11 03:10:46;;;;;;;22.82;12.53;;;;;;;3.56;51.49;100492.94;1640772;86;21776;-72
2021/04/11 03:13:14;;;;;;;20.88;12.80;;;;;;;3.61;51.52;100504.13;1667169;86;21773;-73
2021/04/11 03:15:43;;;;;;;20.90;12.78;;;;;;;3.55;51.53;100512.14;1683307;84;21612;-73
2021/04/11 03:18:10;;;;;;;22.02;12.35;;;;;;;3.52;52.35;100517.02;1700433;84;21199;-74
2021/04/11 03:20:41;;;;;;;19.30;11.90;;;;;;;3.49;52.54;100525.39;1697555;84;21619;-73
2021/04/11 03:23:13;;;;;;;24.27;13.30;;;;;;;3.50;52.77;100528.42;1708158;84;21171;-73
2021/04/11 03:25:41;;;;;;;22.80;12.98;;;;;;;3.47;52.86;100525.91;1701612;84;21292;-73
2021/04/11 03:28:22;;;;;;;23.80;12.73;;;;;;;3.46;52.76;100533.34;1689903;84;21281;-73
2021/04/11 03:31:03;;;;;;;20.12;12.05;;;;;;;3.47;52.52;100536.37;1684626;84;21135;-74
2021/04/11 03:33:34;;;;;;;20.90;11.83;;;;;;;3.50;52.29;100539.73;1682063;84;21191;-72
2021/04/11 03:36:04;;;;;;;19.40;12.80;;;;;;;3.52;52.30;100543.17;1686177;82;21178;-73
2021/04/11 03:38:33;;;;;;;23.07;12.95;;;;;;;3.57;52.29;100541.74;1709470;84;21152;-73
2021/04/11 03:41:00;;;;;;;23.25;13.32;;;;;;;3.64;52.23;100541.95;1689412;84;21155;-73
2021/04/11 03:43:41;;;;;;;22.77;13.68;;;;;;;3.68;52.13;100552.72;1709130;84;21711;-73
2021/04/11 03:46:24;;;;;;;24.77;14.35;;;;;;;3.74;51.94;100558.25;1704583;84;21492;-74
2021/04/11 03:49:17;;;;;;;21.17;13.20;;;;;;;3.83;51.90;100555.82;1700805;84;21647;-72
2021/04/11 03:51:47;;;;;;;23.57;13.95;;;;;;;4.06;51.69;100559.05;1692382;84;21152;-72
2021/04/11 03:54:22;;;;;;;24.25;13.68;;;;;;;4.56;50.73;100560.98;1689782;83;21180;-73
2021/04/11 04:00:03;;;;;;;23.18;13.85;;;;;;;5.60;48.84;100556.13;1818598;79;23293;-72
2021/04/11 04:02:37;;;;;;;22.25;13.78;;;;;;;5.91;47.95;100562.41;1785768;80;21147;-71
2021/04/11 04:05:07;;;;;;;20.35;12.53;;;;;;;6.37;46.76;100580.34;1692756;83;21195;-73
2021/04/11 04:07:49;;;;;;;22.98;12.82;;;;;;;6.78;45.95;100569.52;1721589;83;21179;-74
2021/04/11 04:10:38;;;;;;;21.85;13.10;;;;;;;7.16;45.15;100570.55;1731379;83;21175;-73
2021/04/11 04:13:43;;;;;;;22.00;12.88;;;;;;;7.53;44.40;100572.02;1731452;83;21317;-74
2021/04/11 04:16:23;;;;;;;22.75;12.00;;;;;;;7.86;43.70;100570.98;1720195;83;21623;-73
2021/04/11 04:19:22;;;;;;;20.85;12.30;;;;;;;8.22;43.00;100575.05;1729851;83;21179;-74
2021/04/11 04:22:34;;;;;;;19.67;12.28;;;;;;;8.55;42.37;100575.72;1721417;82;21591;-73
2021/04/11 04:25:31;;;;;;;21.75;13.25;;;;;;;8.87;42.05;100574.11;1717490;83;21227;-72
2021/04/11 04:28:24;;;;;;;20.92;13.08;;;;;;;9.16;41.17;100586.31;1748376;81;21309;-72
2021/04/11 04:31:04;;;;;;;22.37;13.10;;;;;;;9.48;40.63;100582.47;1749762;82;21192;-73
2021/04/11 04:33:52;;;;;;;19.50;11.90;;;;;;;9.79;39.97;100584.80;1750828;82;21155;-72
2021/04/11 04:36:48;;;;;;;20.48;12.33;;;;;;;10.07;39.66;100591.23;1723365;83;21232;-73
2021/04/11 04:39:35;;;;;;;20.97;12.47;;;;;;;10.38;39.13;100588.23;1780321;79;22921;-73
2021/04/11 04:42:36;;;;;;;19.25;11.48;;;;;;;10.49;38.62;100592.45;1752086;82;21171;-72
2021/04/11 04:45:25;;;;;;;19.75;12.43;;;;;;;10.61;38.10;100598.38;1745149;82;21187;-73
2021/04/11 04:48:29;;;;;;;20.10;12.63;;;;;;;10.73;37.81;100598.14;1723026;83;21171;-74
2021/04/11 04:51:05;;;;;;;25.05;14.07;;;;;;;10.92;37.62;100596.61;1730149;82;21281;-74
2021/04/11 04:53:47;;;;;;;23.47;13.85;;;;;;;11.14;37.35;100600.64;1723495;83;21548;-74
2021/04/11 04:56:20;;;;;;;21.85;13.20;;;;;;;11.37;36.94;100595.30;1723202;82;21309;-73
2021/04/11 04:58:56;;;;;;;21.37;12.50;;;;;;;11.56;36.66;100600.78;1723214;83;21183;-73
2021/04/11 05:01:28;;;;;;;30.50;14.70;;;;;;;11.70;36.65;100599.94;1741466;82;21608;-73
2021/04/11 05:04:04;;;;;;;17.62;12.43;;;;;;;11.82;36.52;100596.55;1720409;83;21194;-73
2021/04/11 05:06:41;;;;;;;22.65;12.65;;;;;;;11.95;36.36;100598.83;1734279;82;21266;-74
2021/04/11 05:09:48;;;;;;;19.10;12.33;;;;;;;12.11;36.42;100596.08;1722206;83;21175;-74
2021/04/11 05:12:43;;;;;;;17.85;11.08;;;;;;;12.33;36.28;100597.81;1727027;82;21151;-74
2021/04/11 05:15:21;;;;;;;19.65;12.18;;;;;;;12.59;35.83;100602.29;1746947;82;21250;-74
2021/04/11 05:18:20;;;;;;;18.62;12.10;;;;;;;12.91;35.32;100603.78;1731649;82;21328;-73
2021/04/11 05:20:58;;;;;;;14.85;10.45;;;;;;;13.15;34.71;100606.60;1743352;82;21150;-74
2021/04/11 05:23:38;;;;;;;20.02;11.97;;;;;;;13.41;34.51;100604.88;1731734;82;21548;-74
2021/04/11 05:26:33;;;;;;;18.60;11.65;;;;;;;13.64;34.51;100607.72;1719522;82;21162;-74
2021/04/11 05:29:26;;;;;;;20.75;12.15;;;;;;;13.86;34.15;100608.88;1723647;82;21167;-74
2021/04/11 05:31:55;;;;;;;19.57;12.50;;;;;;;14.10;33.70;100612.94;1723082;83;21183;-75
2021/04/11 05:34:24;;;;;;;18.90;12.28;;;;;;;14.32;33.15;100612.73;1727776;82;21304;-75
2021/04/11 05:37:12;;;;;;;24.35;15.15;;;;;;;14.47;33.00;100614.27;1722151;81;21155;-75
2021/04/11 05:40:02;;;;;;;42.78;15.83;;;;;;;14.61;32.76;100620.41;1722123;83;21544;-75
2021/04/11 05:42:56;;;;;;;19.27;12.18;;;;;;;14.65;32.57;100617.91;1722362;83;21203;-74
2021/04/11 05:45:45;;;;;;;17.30;11.75;;;;;;;14.59;32.36;100618.70;1722699;83;21179;-72
2021/04/11 05:48:19;;;;;;;21.12;12.68;;;;;;;14.38;32.83;100612.28;1721404;83;21562;-73
2021/04/11 05:51:11;;;;;;;18.70;12.20;;;;;;;14.15;33.17;100610.80;1723352;83;21441;-74
2021/04/11 05:54:03;;;;;;;22.73;11.65;;;;;;;14.07;33.30;100611.34;1723215;83;21173;-73
2021/04/11 05:56:43;;;;;;;27.40;12.40;;;;;;;14.05;33.62;100621.72;1723124;83;21189;-74
2021/04/11 05:59:18;;;;;;;18.00;12.13;;;;;;;13.98;33.68;100615.12;1715288;84;21366;-73
2021/04/11 06:01:51;;;;;;;19.95;12.13;;;;;;;13.99;33.72;100619.50;1715288;84;21308;-74
2021/04/11 06:04:30;;;;;;;20.00;11.35;;;;;;;14.07;33.48;100622.48;1722482;83;21167;-74
2021/04/11 06:07:28;;;;;;;19.07;11.30;;;;;;;14.12;33.63;100619.02;1723276;83;21558;-74
2021/04/11 06:10:03;;;;;;;17.37;12.28;;;;;;;14.19;33.36;100626.90;1722955;83;21295;-75
2021/04/11 06:13:03;;;;;;;18.20;12.03;;;;;;;14.29;33.51;100625.77;1819024;79;23006;-74
2021/04/11 06:15:44;;;;;;;17.92;11.03;;;;;;;14.33;33.30;100631.73;1800283;78;21147;-74
2021/04/11 06:18:13;;;;;;;18.92;10.90;;;;;;;14.38;33.43;100627.76;1783805;80;21301;-75
2021/04/11 06:20:44;;;;;;;20.97;11.78;;;;;;;14.51;33.48;100622.88;1774325;80;21673;-74
2021/04/11 06:23:27;;;;;;;18.55;14.68;;;;;;;14.61;33.35;100627.90;1706010;78;21834;-75
2021/04/11 06:26:24;;;;;;;87.25;59.50;;;;;;;14.73;33.17;100622.18;1728028;81;21203;-75
2021/04/11 06:29:00;;;;;;;17.35;12.25;;;;;;;14.87;32.70;100632.67;1659179;86;21313;-75
2021/04/11 06:31:35;;;;;;;17.50;12.30;;;;;;;14.91;32.90;100637.27;1651685;86;21163;-74
2021/04/11 06:34:20;;;;;;;17.48;10.90;;;;;;;14.95;32.60;100629.44;1654485;86;21179;-73
2021/04/11 06:36:48;;;;;;;18.23;12.23;;;;;;;14.89;32.84;100634.73;1638946;85;21261;-74
2021/04/11 06:39:28;;;;;;;19.50;12.20;;;;;;;14.96;32.56;100635.61;1607799;88;21219;-73
2021/04/11 06:42:35;;;;;;;18.07;11.60;;;;;;;15.09;32.67;100631.07;1612538;88;21317;-74
2021/04/11 06:45:35;;;;;;;15.35;10.93;;;;;;;15.23;32.22;100635.36;1613231;88;21188;-74
2021/04/11 06:48:43;;;;;;;14.68;10.32;;;;;;;15.41;32.25;100638.44;1638834;86;21660;-75
2021/04/11 06:51:45;;;;;;;17.30;10.98;;;;;;;15.48;32.11;100647.64;1627468;88;21665;-74
2021/04/11 06:54:33;;;;;;;19.15;12.20;;;;;;;15.51;31.79;100644.75;1642987;86;21639;-74
2021/04/11 06:57:24;;;;;;;16.48;12.00;;;;;;;15.49;31.59;100637.34;1633003;86;21642;-74
2021/04/11 07:00:12;;;;;;;34.05;11.80;;;;;;;15.58;32.27;100641.63;1619860;87;21195;-74
2021/04/11 07:03:13;;;;;;;21.45;11.38;;;;;;;15.72;31.77;100638.72;1628260;87;21203;-75
2021/04/11 07:06:16;;;;;;;21.07;11.43;;;;;;;15.77;32.05;100641.88;1613706;87;21194;-76
2021/04/11 07:09:23;;;;;;;17.62;10.53;;;;;;;15.86;31.80;100649.19;1620554;87;21160;-75
2021/04/11 07:12:16;;;;;;;32.05;10.70;;;;;;;16.00;31.54;100649.94;1628609;87;21195;-77
2021/04/11 07:15:10;;;;;;;14.65;9.38;;;;;;;16.05;31.25;100652.59;1625603;87;21611;-72
2021/04/11 07:18:19;;;;;;;15.08;10.40;;;;;;;16.05;30.98;100655.25;1627753;87;21203;-72
2021/04/11 07:21:38;;;;;;;14.28;9.18;;;;;;;16.14;30.74;100648.81;1617290;87;21756;-72
2021/04/11 07:24:19;;;;;;;15.58;8.80;;;;;;;16.21;30.84;100653.56;1639139;87;21595;-72
2021/04/11 07:26:56;;;;;;;19.48;8.80;;;;;;;16.21;30.33;100652.23;1576278;87;21377;-70
2021/04/11 07:30:14;;;;;;;12.63;9.10;;;;;;;16.25;30.67;100655.98;1624250;88;21175;-70
2021/04/11 07:33:11;;;;;;;21.33;8.90;;;;;;;16.34;30.35;100659.23;1641286;87;21227;-71
2021/04/11 07:35:54;;;;;;;12.68;8.23;;;;;;;16.42;30.10;100650.14;1622213;87;21759;-71
2021/04/11 07:38:35;;;;;;;12.15;7.78;;;;;;;16.52;30.09;100656.43;1616074;88;21341;-70
2021/04/11 07:41:33;;;;;;;12.33;8.35;;;;;;;16.65;29.67;100660.75;1618453;88;21199;-70
2021/04/11 07:44:32;;;;;;;11.25;7.60;;;;;;;16.72;29.58;100656.62;1605752;89;21244;-70
2021/04/11 07:47:10;;;;;;;12.45;8.43;;;;;;;16.74;28.61;100660.02;1627620;88;21234;-69
2021/04/11 07:49:50;;;;;;;14.93;9.13;;;;;;;16.68;29.39;100657.85;1617372;88;21132;-70
2021/04/11 07:53:07;;;;;;;17.27;8.73;;;;;;;16.74;29.43;100658.69;1626386;87;21196;-69
2021/04/11 07:55:51;;;;;;;13.50;7.60;;;;;;;16.80;29.71;100644.83;1624440;88;21293;-69
2021/04/11 07:58:39;;;;;;;;;;;;;;;16.78;28.77;100652.11;1629069;88;21159;-71
2021/04/11 08:01:41;;;;;;;11.90;7.72;;;;;;;16.73;28.82;100658.32;1625996;87;20212;-69
2021/04/11 08:04:39;;;;;;;28.40;8.23;;;;;;;16.52;28.66;100652.42;1606733;88;21228;-69
2021/04/11 08:07:22;;;;;;;14.83;6.87;;;;;;;16.43;29.29;100658.48;1568590;89;21366;-69
2021/04/11 08:10:17;;;;;;;10.88;7.22;;;;;;;16.47;29.26;100655.09;1605841;89;21600;-70
2021/04/11 08:13:20;;;;;;;8.38;6.10;;;;;;;16.48;28.55;100652.32;1605715;89;21252;-70
2021/04/11 08:16:31;;;;;;;7.83;5.45;;;;;;;16.43;29.14;100650.48;1621796;88;21354;-70
2021/04/11 08:19:37;;;;;;;19.32;7.28;;;;;;;16.43;27.23;100650.48;1609110;88;21231;-70
2021/04/11 08:22:42;;;;;;;10.00;6.55;;;;;;;16.36;28.33;100646.13;1608222;89;21242;-70
2021/04/11 08:25:38;;;;;;;8.40;5.47;;;;;;;16.42;27.80;100646.61;1606973;88;21212;-69
2021/04/11 08:28:29;;;;;;;10.30;6.58;;;;;;;16.43;27.23;100644.30;1625651;88;21604;-70
2021/04/11 08:31:13;;;;;;;23.25;7.10;;;;;;;16.44;27.83;100644.17;1628655;88;21227;-70
2021/04/11 08:33:58;;;;;;;10.55;6.55;;;;;;;16.52;28.08;100647.09;1634142;88;21179;-70
2021/04/11 08:37:09;;;;;;;10.65;6.67;;;;;;;16.59;28.50;100636.75;1634135;87;21656;-70
2021/04/11 08:40:08;;;;;;;10.70;7.00;;;;;;;16.65;27.99;100641.59;1600728;88;21830;-72
2021/04/11 08:43:30;;;;;;;19.42;7.40;;;;;;;16.65;28.05;100650.07;1612507;88;21215;-71
2021/04/11 08:46:44;;;;;;;10.20;6.60;;;;;;;16.66;28.63;100638.42;1610890;89;21199;-70
2021/04/11 08:49:30;;;;;;;8.75;6.05;;;;;;;16.67;27.52;100639.63;1583383;91;21216;-75
2021/04/11 08:52:10;;;;;;;9.88;6.83;;;;;;;16.60;26.98;100640.25;1613510;88;21159;-74
2021/04/11 08:55:08;;;;;;;11.25;6.45;;;;;;;16.44;25.92;100632.16;1602403;88;21183;-75
2021/04/11 08:58:04;;;;;;;8.78;6.05;;;;;;;16.21;27.38;100624.21;1634167;87;21223;-75
2021/04/11 09:00:48;;;;;;;9.83;6.12;;;;;;;16.18;27.70;100629.77;1662355;86;21187;-75
2021/04/11 09:03:30;;;;;;;;;;;;;;;16.22;27.06;100631.22;1662148;86;21190;-74
2021/04/11 09:06:23;;;;;;;8.98;6.03;;;;;;;16.20;27.35;100615.84;1635768;88;20290;-74
2021/04/11 09:09:15;;;;;;;13.70;8.13;;;;;;;16.13;27.02;100611.12;1634999;88;21430;-75
2021/04/11 09:12:08;;;;;;;9.83;6.25;;;;;;;16.18;28.52;100612.92;1635680;87;21148;-75
2021/04/11 09:14:59;;;;;;;14.43;7.35;;;;;;;16.34;27.18;100613.39;1623988;88;21214;-76
2021/04/11 09:17:54;;;;;;;8.60;6.42;;;;;;;16.40;27.98;100609.36;1632613;88;21611;-76
2021/04/11 09:20:43;;;;;;;13.40;6.47;;;;;;;16.54;27.55;100609.08;1615986;88;21232;-74
2021/04/11 09:23:34;;;;;;;10.58;6.95;;;;;;;16.66;27.91;100597.03;1633283;88;21198;-73
2021/04/11 09:26:10;;;;;;;10.60;6.70;;;;;;;16.75;27.63;100600.27;1629107;88;21809;-73
2021/04/11 09:28:56;;;;;;;35.63;8.13;;;;;;;16.72;27.02;100595.19;1629095;87;21215;-74
2021/04/11 09:31:33;;;;;;;10.25;6.97;;;;;;;16.68;27.59;100597.27;1625375;88;21160;-75
2021/04/11 09:34:29;;;;;;;11.65;6.95;;;;;;;16.73;27.46;100594.22;1598051;89;21207;-75
2021/04/11 09:37:29;;;;;;;10.88;6.83;;;;;;;16.81;27.68;100584.23;1600975;90;21631;-75
2021/04/11 09:40:19;;;;;;;9.95;6.30;;;;;;;16.88;27.15;100584.92;1586406;89;21171;-75
2021/04/11 09:42:57;;;;;;;10.00;6.62;;;;;;;16.87;26.91;100585.89;1626851;88;21778;-74
2021/04/11 09:46:00;;;;;;;9.08;6.40;;;;;;;16.80;26.50;100582.06;1615087;88;21243;-76
2021/04/11 09:48:54;;;;;;;9.00;6.30;;;;;;;16.63;27.38;100571.42;1574740;88;21363;-74
2021/04/11 09:52:01;;;;;;;11.20;8.20;;;;;;;16.64;26.66;100572.29;1616586;88;21195;-76
2021/04/11 09:54:45;;;;;;;10.32;7.45;;;;;;;16.57;27.36;100579.10;1620386;88;21185;-75
2021/04/11 09:57:58;;;;;;;10.72;6.62;;;;;;;16.66;27.49;100572.99;1650357;86;21215;-75
2021/04/11 10:00:42;;;;;;;10.35;6.78;;;;;;;16.75;27.34;100573.55;1634407;88;21743;-75
2021/04/11 10:03:42;;;;;;;11.38;7.28;;;;;;;16.83;27.12;100571.11;1628767;88;21167;-75
2021/04/11 10:06:24;;;;;;;11.65;6.67;;;;;;;16.87;26.75;100568.53;1633868;88;21611;-75
2021/04/11 10:09:11;;;;;;;11.80;7.65;;;;;;;16.91;27.07;100557.13;1619787;88;21355;-75
2021/04/11 10:12:13;;;;;;;12.15;7.85;;;;;;;16.91;26.18;100565.15;1607034;88;21148;-76
2021/04/11 10:15:12;;;;;;;9.00;6.28;;;;;;;16.71;26.36;100561.44;1607347;89;21188;-74
2021/04/11 10:18:14;;;;;;;11.10;7.20;;;;;;;16.63;27.04;100570.09;1607487;89;21192;-74
2021/04/11 10:21:10;;;;;;;8.80;6.50;;;;;;;16.73;27.49;100567.52;1607048;89;21213;-74
2021/04/11 10:24:29;;;;;;;11.08;6.22;;;;;;;16.91;27.41;100569.66;1607307;89;21245;-74
2021/04/11 10:27:10;;;;;;;9.18;5.95;;;;;;;17.06;27.15;100564.83;1607378;89;22212;-75
2021/04/11 10:29:43;;;;;;;9.25;6.55;;;;;;;17.18;27.46;100559.28;1625344;88;21215;-75
2021/04/11 10:32:35;;;;;;;10.38;6.37;;;;;;;17.28;27.02;100557.17;1642474;87;21757;-75
2021/04/11 10:35:16;;;;;;;9.23;6.60;;;;;;;17.30;26.24;100556.53;1622581;88;21227;-75
2021/04/11 10:37:48;;;;;;;10.58;6.78;;;;;;;17.26;26.41;100552.44;1622457;88;21188;-73
2021/04/11 10:40:42;;;;;;;13.53;7.28;;;;;;;17.17;26.15;100549.59;1636915;88;21195;-75
2021/04/11 10:43:39;;;;;;;10.72;6.62;;;;;;;17.09;26.47;100555.23;1609474;89;21195;-74
2021/04/11 10:46:11;;;;;;;9.58;6.58;;;;;;;16.94;26.17;100561.38;1636687;88;21528;-74
2021/04/11 10:49:19;;;;;;;11.85;7.08;;;;;;;16.83;26.27;100555.08;1609280;88;21354;-74
2021/04/11 10:52:04;;;;;;;12.50;6.45;;;;;;;16.85;26.17;100557.61;1637002;88;21365;-74
2021/04/11 10:54:55;;;;;;;9.05;6.08;;;;;;;16.85;26.64;100550.47;1609448;88;21172;-74
2021/04/11 10:57:49;;;;;;;11.95;6.42;;;;;;;16.93;26.98;100549.84;1629405;87;21191;-74
2021/04/11 11:00:39;;;;;;;8.63;6.00;;;;;;;16.98;26.27;100541.42;1589038;89;21330;-75
2021/04/11 11:03:35;;;;;;;13.10;9.30;;;;;;;16.97;24.84;100543.27;1631392;88;21228;-74
2021/04/11 11:06:39;;;;;;;11.97;7.05;;;;;;;16.88;25.71;100539.51;1626523;88;21798;-75
2021/04/11 11:09:46;;;;;;;11.55;6.92;;;;;;;16.79;26.43;100540.30;1611139;89;21202;-74
2021/04/11 11:12:56;;;;;;;13.78;7.10;;;;;;;16.78;26.16;100531.91;1590729;89;21159;-74
2021/04/11 11:15:35;;;;;;;11.70;6.75;;;;;;;16.84;26.82;100534.08;1611287;88;21170;-74
2021/04/11 11:18:19;;;;;;;13.28;6.95;;;;;;;16.97;26.06;100529.04;1618994;88;21210;-74
2021/04/11 11:21:04;;;;;;;11.57;6.97;;;;;;;17.03;25.30;100528.52;1608418;89;21370;-74
2021/04/11 11:23:58;;;;;;;12.25;7.08;;;;;;;17.00;25.38;100524.28;1637407;87;21174;-75
2021/04/11 11:27:04;;;;;;;13.25;6.67;;;;;;;16.94;24.85;100516.78;1623708;87;21675;-74
2021/04/11 11:30:12;;;;;;;8.68;6.00;;;;;;;16.84;25.15;100515.84;1593469;88;21206;-74
2021/04/11 11:32:57;;;;;;;11.48;6.35;;;;;;;16.81;24.94;100515.62;1604615;88;21167;-75
2021/04/11 11:35:25;;;;;;;9.85;6.37;;;;;;;16.79;24.74;100518.92;1621751;88;21667;-74
2021/04/11 11:38:16;;;;;;;12.15;6.50;;;;;;;16.78;24.34;100511.87;1599182;90;21239;-75
2021/04/11 11:41:14;;;;;;;8.45;6.12;;;;;;;16.75;24.00;100502.77;1622334;87;21723;-75
2021/04/11 11:44:04;;;;;;;14.60;6.22;;;;;;;16.68;24.10;100501.62;1616752;89;21220;-75
2021/04/11 11:47:03;;;;;;;8.85;5.83;;;;;;;16.62;24.20;100500.80;1616467;89;21147;-75
2021/04/11 11:49:48;;;;;;;12.28;6.70;;;;;;;16.57;24.46;100497.66;1616436;89;21687;-74
2021/04/11 11:52:32;;;;;;;9.45;6.15;;;;;;;16.53;24.53;100497.06;1624083;87;21215;-74
2021/04/11 11:55:08;;;;;;;;;;;;;;;16.54;24.98;100492.92;1615239;88;21212;-74
2021/04/11 11:58:09;;;;;;;13.83;6.97;;;;;;;16.64;25.38;100489.50;1608137;88;20182;-74
2021/04/11 12:00:42;;;;;;;14.28;6.78;;;;;;;16.67;24.17;100486.56;1615589;88;21665;-74
2021/04/11 12:06:32;;;;;;;25.00;7.00;;;;;;;16.75;24.85;100492.09;1941380;73;22972;-74
2021/04/11 12:09:22;;;;;;;8.28;6.05;;;;;;;16.76;24.91;100484.44;1918465;75;21131;-75
2021/04/11 12:12:05;;;;;;;17.60;6.53;;;;;;;16.82;24.64;100475.08;1917288;75;21131;-74
2021/04/11 12:14:44;;;;;;;10.50;6.60;;;;;;;16.85;24.49;100477.00;1830430;78;21129;-74
2021/04/11 12:17:50;;;;;;;10.75;7.00;;;;;;;16.91;23.90;100476.16;1825625;78;21296;-74
2021/04/11 12:20:45;;;;;;;16.27;7.17;;;;;;;16.88;24.03;100476.73;1810698;79;21261;-75
2021/04/11 12:23:20;;;;;;;15.15;8.10;;;;;;;16.90;23.88;100477.09;1828148;78;21138;-74
2021/04/11 12:25:48;;;;;;;11.35;7.55;;;;;;;16.93;23.68;100472.84;1838722;77;21245;-75
2021/04/11 12:28:24;;;;;;;13.18;6.17;;;;;;;16.97;23.78;100467.59;1831897;77;21512;-74
2021/04/11 12:30:53;;;;;;;10.53;5.70;;;;;;;16.99;23.12;100469.14;1817304;77;21138;-74
2021/04/11 12:33:55;;;;;;;12.65;6.05;;;;;;;16.99;22.93;100466.98;1836184;77;21154;-75
2021/04/11 12:36:43;;;;;;;12.58;6.58;;;;;;;16.95;23.63;100466.89;1825497;77;21568;-76
2021/04/11 12:39:25;;;;;;;18.52;7.92;;;;;;;16.93;23.39;100470.17;1772306;79;21165;-74
2021/04/11 12:42:15;;;;;;;15.85;7.20;;;;;;;16.91;23.61;100463.63;1837129;77;21138;-74